sensor_id;sensor_type;location;lat;lon;timestamp;temperature;humidity
9881;DHT22;4979;51.014;6.678;2022-07-17T00:02:17;17.40;99.90
9881;DHT22;4979;51.014;6.678;2022-07-17T00:04:42;17.40;99.90
9881;DHT22;4979;51.014;6.678;2022-07-17T00:07:08;17.40;99.90
9881;DHT22;4979;51.014;6.678;2022-07-17T00:09:33;17.40;99.90
9881;DHT22;4979;51.014;6.678;2022-07-17T00:11:59;17.40;99.90
9881;DHT22;4979;51.014;6.678;2022-07-17T00:14:25;17.40;99.90
9881;DHT22;4979;51.014;6.678;2022-07-17T00:16:50;17.40;99.90
9881;DHT22;4979;51.014;6.678;2022-07-17T00:19:17;17.40;99.90
9881;DHT22;4979;51.014;6.678;2022-07-17T00:21:42;17.30;99.90
9881;DHT22;4979;51.014;6.678;2022-07-17T00:24:08;17.30;99.90
9881;DHT22;4979;51.014;6.678;2022-07-17T00:26:34;17.30;99.90
9881;DHT22;4979;51.014;6.678;2022-07-17T00:29:01;17.30;99.90
9881;DHT22;4979;51.014;6.678;2022-07-17T00:31:27;17.20;99.90
9881;DHT22;4979;51.014;6.678;2022-07-17T00:33:53;17.20;99.90
9881;DHT22;4979;51.014;6.678;2022-07-17T00:36:18;17.10;99.90
9881;DHT22;4979;51.014;6.678;2022-07-17T00:38:44;17.10;99.90
9881;DHT22;4979;51.014;6.678;2022-07-17T00:41:09;17.00;99.90
9881;DHT22;4979;51.014;6.678;2022-07-17T00:43:38;17.00;99.90
9881;DHT22;4979;51.014;6.678;2022-07-17T00:46:05;16.90;99.90
9881;DHT22;4979;51.014;6.678;2022-07-17T00:48:32;16.80;99.90
9881;DHT22;4979;51.014;6.678;2022-07-17T00:50:58;16.80;99.90
9881;DHT22;4979;51.014;6.678;2022-07-17T00:53:23;16.90;99.90
9881;DHT22;4979;51.014;6.678;2022-07-17T00:55:49;16.90;99.90
9881;DHT22;4979;51.014;6.678;2022-07-17T00:58:23;16.80;99.90
9881;DHT22;4979;51.014;6.678;2022-07-17T01:00:52;16.80;99.90
9881;DHT22;4979;51.014;6.678;2022-07-17T01:03:18;16.70;99.90
9881;DHT22;4979;51.014;6.678;2022-07-17T01:05:45;16.60;99.90
9881;DHT22;4979;51.014;6.678;2022-07-17T01:08:11;16.60;99.90
9881;DHT22;4979;51.014;6.678;2022-07-17T01:10:37;16.60;99.90
9881;DHT22;4979;51.014;6.678;2022-07-17T01:13:04;16.50;99.90
9881;DHT22;4979;51.014;6.678;2022-07-17T01:15:37;16.60;99.90
9881;DHT22;4979;51.014;6.678;2022-07-17T01:18:07;16.60;99.90
9881;DHT22;4979;51.014;6.678;2022-07-17T01:20:35;16.60;99.90
9881;DHT22;4979;51.014;6.678;2022-07-17T01:23:01;16.60;99.90
9881;DHT22;4979;51.014;6.678;2022-07-17T01:25:26;16.40;99.90
9881;DHT22;4979;51.014;6.678;2022-07-17T01:27:52;16.20;99.90
9881;DHT22;4979;51.014;6.678;2022-07-17T01:30:18;16.40;99.90
9881;DHT22;4979;51.014;6.678;2022-07-17T01:32:44;16.40;99.90
9881;DHT22;4979;51.014;6.678;2022-07-17T01:35:11;16.50;99.90
9881;DHT22;4979;51.014;6.678;2022-07-17T01:37:38;16.50;99.90
9881;DHT22;4979;51.014;6.678;2022-07-17T01:40:05;16.50;99.90
9881;DHT22;4979;51.014;6.678;2022-07-17T01:42:31;16.50;99.90
9881;DHT22;4979;51.014;6.678;2022-07-17T01:44:57;16.60;99.90
9881;DHT22;4979;51.014;6.678;2022-07-17T01:47:23;16.50;99.90
9881;DHT22;4979;51.014;6.678;2022-07-17T01:49:51;16.40;99.90
9881;DHT22;4979;51.014;6.678;2022-07-17T01:52:17;16.30;99.90
9881;DHT22;4979;51.014;6.678;2022-07-17T01:54:44;16.30;99.90
9881;DHT22;4979;51.014;6.678;2022-07-17T01:57:11;16.30;99.90
9881;DHT22;4979;51.014;6.678;2022-07-17T01:59:37;16.40;99.90
9881;DHT22;4979;51.014;6.678;2022-07-17T02:02:03;16.30;99.90
9881;DHT22;4979;51.014;6.678;2022-07-17T02:04:31;16.40;99.90
9881;DHT22;4979;51.014;6.678;2022-07-17T02:06:57;16.40;99.90
9881;DHT22;4979;51.014;6.678;2022-07-17T02:09:22;16.20;99.90
9881;DHT22;4979;51.014;6.678;2022-07-17T02:11:49;16.30;99.90
9881;DHT22;4979;51.014;6.678;2022-07-17T02:14:14;16.20;99.90
9881;DHT22;4979;51.014;6.678;2022-07-17T02:16:40;16.20;99.90
9881;DHT22;4979;51.014;6.678;2022-07-17T02:19:05;16.20;99.90
9881;DHT22;4979;51.014;6.678;2022-07-17T02:21:31;16.00;99.90
9881;DHT22;4979;51.014;6.678;2022-07-17T02:23:57;15.90;99.90
9881;DHT22;4979;51.014;6.678;2022-07-17T02:26:22;15.90;99.90
9881;DHT22;4979;51.014;6.678;2022-07-17T02:28:48;15.80;99.90
9881;DHT22;4979;51.014;6.678;2022-07-17T02:31:14;16.00;99.90
9881;DHT22;4979;51.014;6.678;2022-07-17T02:33:39;15.90;99.90
9881;DHT22;4979;51.014;6.678;2022-07-17T02:36:05;15.80;99.90
9881;DHT22;4979;51.014;6.678;2022-07-17T02:38:31;15.70;99.90
9881;DHT22;4979;51.014;6.678;2022-07-17T02:40:57;15.70;99.90
9881;DHT22;4979;51.014;6.678;2022-07-17T02:43:22;15.70;99.90
9881;DHT22;4979;51.014;6.678;2022-07-17T02:45:48;15.80;99.90
9881;DHT22;4979;51.014;6.678;2022-07-17T02:48:13;15.70;99.90
9881;DHT22;4979;51.014;6.678;2022-07-17T02:50:39;15.60;99.90
9881;DHT22;4979;51.014;6.678;2022-07-17T02:53:05;15.60;99.90
9881;DHT22;4979;51.014;6.678;2022-07-17T02:55:31;15.60;99.90
9881;DHT22;4979;51.014;6.678;2022-07-17T02:57:56;15.50;99.90
9881;DHT22;4979;51.014;6.678;2022-07-17T03:00:22;15.50;99.90
9881;DHT22;4979;51.014;6.678;2022-07-17T03:02:47;15.50;99.90
9881;DHT22;4979;51.014;6.678;2022-07-17T03:05:15;15.60;99.90
9881;DHT22;4979;51.014;6.678;2022-07-17T03:07:42;15.50;99.90
9881;DHT22;4979;51.014;6.678;2022-07-17T03:10:08;15.50;99.90
9881;DHT22;4979;51.014;6.678;2022-07-17T03:12:34;15.60;99.90
9881;DHT22;4979;51.014;6.678;2022-07-17T03:15:00;15.50;99.90
9881;DHT22;4979;51.014;6.678;2022-07-17T03:17:25;15.50;99.90
9881;DHT22;4979;51.014;6.678;2022-07-17T03:19:52;15.40;99.90
9881;DHT22;4979;51.014;6.678;2022-07-17T03:22:17;15.40;99.90
9881;DHT22;4979;51.014;6.678;2022-07-17T03:24:43;15.30;99.90
9881;DHT22;4979;51.014;6.678;2022-07-17T03:27:09;15.20;99.90
9881;DHT22;4979;51.014;6.678;2022-07-17T03:29:34;15.30;99.90
9881;DHT22;4979;51.014;6.678;2022-07-17T03:32:00;15.30;99.90
9881;DHT22;4979;51.014;6.678;2022-07-17T03:34:26;15.10;99.90
9881;DHT22;4979;51.014;6.678;2022-07-17T03:36:51;15.00;99.90
9881;DHT22;4979;51.014;6.678;2022-07-17T03:39:17;15.00;99.90
9881;DHT22;4979;51.014;6.678;2022-07-17T03:41:43;15.00;99.90
9881;DHT22;4979;51.014;6.678;2022-07-17T03:44:09;14.90;99.90
9881;DHT22;4979;51.014;6.678;2022-07-17T03:46:35;14.80;99.90
9881;DHT22;4979;51.014;6.678;2022-07-17T03:49:01;14.90;99.90
9881;DHT22;4979;51.014;6.678;2022-07-17T03:51:26;14.90;99.90
9881;DHT22;4979;51.014;6.678;2022-07-17T03:53:52;14.90;99.90
9881;DHT22;4979;51.014;6.678;2022-07-17T03:56:18;15.00;99.90
9881;DHT22;4979;51.014;6.678;2022-07-17T03:58:43;15.00;99.90
9881;DHT22;4979;51.014;6.678;2022-07-17T04:01:09;15.00;99.90
9881;DHT22;4979;51.014;6.678;2022-07-17T04:03:34;15.00;99.90
9881;DHT22;4979;51.014;6.678;2022-07-17T04:06:00;15.00;99.90
9881;DHT22;4979;51.014;6.678;2022-07-17T04:08:26;15.00;99.90
9881;DHT22;4979;51.014;6.678;2022-07-17T04:10:51;15.20;99.90
9881;DHT22;4979;51.014;6.678;2022-07-17T04:13:17;15.30;99.90
9881;DHT22;4979;51.014;6.678;2022-07-17T04:15:43;15.10;99.90
9881;DHT22;4979;51.014;6.678;2022-07-17T04:18:17;15.10;99.90
9881;DHT22;4979;51.014;6.678;2022-07-17T04:20:43;15.20;99.90
9881;DHT22;4979;51.014;6.678;2022-07-17T04:23:09;15.30;99.90
9881;DHT22;4979;51.014;6.678;2022-07-17T04:25:34;15.40;99.90
9881;DHT22;4979;51.014;6.678;2022-07-17T04:28:00;15.50;99.90
9881;DHT22;4979;51.014;6.678;2022-07-17T04:30:26;15.50;99.90
9881;DHT22;4979;51.014;6.678;2022-07-17T04:32:52;15.40;99.90
9881;DHT22;4979;51.014;6.678;2022-07-17T04:35:17;15.40;99.90
9881;DHT22;4979;51.014;6.678;2022-07-17T04:37:43;15.40;99.90
9881;DHT22;4979;51.014;6.678;2022-07-17T04:40:10;15.60;99.90
9881;DHT22;4979;51.014;6.678;2022-07-17T04:42:35;15.70;99.90
9881;DHT22;4979;51.014;6.678;2022-07-17T04:45:01;15.60;99.90
9881;DHT22;4979;51.014;6.678;2022-07-17T04:47:26;15.70;99.90
9881;DHT22;4979;51.014;6.678;2022-07-17T04:49:52;15.80;99.90
9881;DHT22;4979;51.014;6.678;2022-07-17T04:52:18;15.80;99.90
9881;DHT22;4979;51.014;6.678;2022-07-17T04:54:43;15.90;99.90
9881;DHT22;4979;51.014;6.678;2022-07-17T04:57:09;16.00;99.90
9881;DHT22;4979;51.014;6.678;2022-07-17T04:59:34;16.40;99.90
9881;DHT22;4979;51.014;6.678;2022-07-17T05:02:02;16.70;99.90
9881;DHT22;4979;51.014;6.678;2022-07-17T05:04:28;16.60;99.90
9881;DHT22;4979;51.014;6.678;2022-07-17T05:06:54;16.60;99.90
9881;DHT22;4979;51.014;6.678;2022-07-17T05:09:20;16.70;99.90
9881;DHT22;4979;51.014;6.678;2022-07-17T05:11:45;16.70;99.90
9881;DHT22;4979;51.014;6.678;2022-07-17T05:14:11;16.80;99.90
9881;DHT22;4979;51.014;6.678;2022-07-17T05:16:36;17.10;99.90
9881;DHT22;4979;51.014;6.678;2022-07-17T05:19:02;17.40;99.90
9881;DHT22;4979;51.014;6.678;2022-07-17T05:21:27;17.60;99.90
9881;DHT22;4979;51.014;6.678;2022-07-17T05:23:53;17.70;99.90
9881;DHT22;4979;51.014;6.678;2022-07-17T05:26:19;17.80;99.90
9881;DHT22;4979;51.014;6.678;2022-07-17T05:28:44;17.80;99.90
9881;DHT22;4979;51.014;6.678;2022-07-17T05:31:10;17.60;99.90
9881;DHT22;4979;51.014;6.678;2022-07-17T05:33:35;17.70;99.90
9881;DHT22;4979;51.014;6.678;2022-07-17T05:36:01;17.90;99.90
9881;DHT22;4979;51.014;6.678;2022-07-17T05:38:27;18.00;99.90
9881;DHT22;4979;51.014;6.678;2022-07-17T05:40:53;18.00;99.90
9881;DHT22;4979;51.014;6.678;2022-07-17T05:43:18;18.00;99.90
9881;DHT22;4979;51.014;6.678;2022-07-17T05:45:44;18.00;99.90
9881;DHT22;4979;51.014;6.678;2022-07-17T05:48:09;17.90;99.90
9881;DHT22;4979;51.014;6.678;2022-07-17T05:50:35;17.90;99.90
9881;DHT22;4979;51.014;6.678;2022-07-17T05:53:01;17.80;99.90
9881;DHT22;4979;51.014;6.678;2022-07-17T05:55:27;17.80;99.90
9881;DHT22;4979;51.014;6.678;2022-07-17T05:57:53;18.00;99.90
9881;DHT22;4979;51.014;6.678;2022-07-17T06:00:19;18.00;99.90
9881;DHT22;4979;51.014;6.678;2022-07-17T06:02:45;18.10;99.90
9881;DHT22;4979;51.014;6.678;2022-07-17T06:05:11;18.10;99.90
9881;DHT22;4979;51.014;6.678;2022-07-17T06:07:37;18.10;99.90
9881;DHT22;4979;51.014;6.678;2022-07-17T06:10:04;18.10;99.90
9881;DHT22;4979;51.014;6.678;2022-07-17T06:12:30;18.10;99.90
9881;DHT22;4979;51.014;6.678;2022-07-17T06:14:56;18.30;99.90
9881;DHT22;4979;51.014;6.678;2022-07-17T06:17:21;18.40;99.90
9881;DHT22;4979;51.014;6.678;2022-07-17T06:19:48;18.50;99.90
9881;DHT22;4979;51.014;6.678;2022-07-17T06:22:18;18.60;99.90
9881;DHT22;4979;51.014;6.678;2022-07-17T06:24:44;18.40;99.90
9881;DHT22;4979;51.014;6.678;2022-07-17T06:27:10;18.30;99.90
9881;DHT22;4979;51.014;6.678;2022-07-17T06:29:35;18.50;99.90
9881;DHT22;4979;51.014;6.678;2022-07-17T06:32:01;18.50;99.90
9881;DHT22;4979;51.014;6.678;2022-07-17T06:34:26;18.70;99.90
9881;DHT22;4979;51.014;6.678;2022-07-17T06:36:52;18.70;99.90
9881;DHT22;4979;51.014;6.678;2022-07-17T06:39:17;18.90;99.90
9881;DHT22;4979;51.014;6.678;2022-07-17T06:41:43;18.90;99.90
9881;DHT22;4979;51.014;6.678;2022-07-17T06:44:09;19.10;99.90
9881;DHT22;4979;51.014;6.678;2022-07-17T06:46:34;19.10;99.90
9881;DHT22;4979;51.014;6.678;2022-07-17T06:49:00;19.20;99.90
9881;DHT22;4979;51.014;6.678;2022-07-17T06:51:25;19.20;99.90
9881;DHT22;4979;51.014;6.678;2022-07-17T06:53:51;19.30;99.90
9881;DHT22;4979;51.014;6.678;2022-07-17T06:56:16;19.50;99.90
9881;DHT22;4979;51.014;6.678;2022-07-17T06:58:42;19.70;99.90
9881;DHT22;4979;51.014;6.678;2022-07-17T07:01:08;19.60;99.90
9881;DHT22;4979;51.014;6.678;2022-07-17T07:03:33;19.50;99.90
9881;DHT22;4979;51.014;6.678;2022-07-17T07:05:59;19.70;99.90
9881;DHT22;4979;51.014;6.678;2022-07-17T07:08:25;19.90;99.90
9881;DHT22;4979;51.014;6.678;2022-07-17T07:10:51;20.10;99.90
9881;DHT22;4979;51.014;6.678;2022-07-17T07:13:16;20.10;99.90
9881;DHT22;4979;51.014;6.678;2022-07-17T07:15:42;20.10;99.90
9881;DHT22;4979;51.014;6.678;2022-07-17T07:18:08;20.20;99.90
9881;DHT22;4979;51.014;6.678;2022-07-17T07:20:34;20.20;99.90
9881;DHT22;4979;51.014;6.678;2022-07-17T07:22:59;20.00;99.90
9881;DHT22;4979;51.014;6.678;2022-07-17T07:25:25;20.40;99.90
9881;DHT22;4979;51.014;6.678;2022-07-17T07:27:51;20.40;99.90
9881;DHT22;4979;51.014;6.678;2022-07-17T07:30:17;20.60;99.90
9881;DHT22;4979;51.014;6.678;2022-07-17T07:32:43;20.80;99.90
9881;DHT22;4979;51.014;6.678;2022-07-17T07:35:09;20.70;99.90
9881;DHT22;4979;51.014;6.678;2022-07-17T07:37:36;20.80;99.90
9881;DHT22;4979;51.014;6.678;2022-07-17T07:40:02;20.80;99.90
9881;DHT22;4979;51.014;6.678;2022-07-17T07:42:28;21.00;99.90
9881;DHT22;4979;51.014;6.678;2022-07-17T07:44:53;21.20;99.90
9881;DHT22;4979;51.014;6.678;2022-07-17T07:47:19;21.40;99.90
9881;DHT22;4979;51.014;6.678;2022-07-17T07:49:45;21.40;99.90
9881;DHT22;4979;51.014;6.678;2022-07-17T07:52:11;21.50;99.90
9881;DHT22;4979;51.014;6.678;2022-07-17T07:54:37;21.70;99.90
9881;DHT22;4979;51.014;6.678;2022-07-17T07:57:02;21.90;99.90
9881;DHT22;4979;51.014;6.678;2022-07-17T07:59:29;21.80;99.90
9881;DHT22;4979;51.014;6.678;2022-07-17T08:01:59;21.90;99.90
9881;DHT22;4979;51.014;6.678;2022-07-17T08:04:25;22.00;99.90
9881;DHT22;4979;51.014;6.678;2022-07-17T08:06:50;22.10;99.90
9881;DHT22;4979;51.014;6.678;2022-07-17T08:09:16;22.10;99.90
9881;DHT22;4979;51.014;6.678;2022-07-17T08:11:42;22.10;99.90
9881;DHT22;4979;51.014;6.678;2022-07-17T08:14:07;22.20;99.90
9881;DHT22;4979;51.014;6.678;2022-07-17T08:16:33;22.40;99.90
9881;DHT22;4979;51.014;6.678;2022-07-17T08:18:59;22.40;99.90
9881;DHT22;4979;51.014;6.678;2022-07-17T08:21:24;22.40;99.90
9881;DHT22;4979;51.014;6.678;2022-07-17T08:23:50;22.60;99.90
9881;DHT22;4979;51.014;6.678;2022-07-17T08:26:16;22.60;99.90
9881;DHT22;4979;51.014;6.678;2022-07-17T08:28:41;22.70;99.90
9881;DHT22;4979;51.014;6.678;2022-07-17T08:31:07;22.90;99.90
9881;DHT22;4979;51.014;6.678;2022-07-17T08:33:32;22.70;99.90
9881;DHT22;4979;51.014;6.678;2022-07-17T08:35:58;22.90;99.90
9881;DHT22;4979;51.014;6.678;2022-07-17T08:38:24;22.70;99.90
9881;DHT22;4979;51.014;6.678;2022-07-17T08:40:49;23.00;99.90
9881;DHT22;4979;51.014;6.678;2022-07-17T08:43:17;23.10;99.90
9881;DHT22;4979;51.014;6.678;2022-07-17T08:45:43;23.30;99.90
9881;DHT22;4979;51.014;6.678;2022-07-17T08:48:13;23.30;99.90
9881;DHT22;4979;51.014;6.678;2022-07-17T08:50:40;23.40;99.90
9881;DHT22;4979;51.014;6.678;2022-07-17T08:53:05;23.60;99.90
9881;DHT22;4979;51.014;6.678;2022-07-17T08:55:32;23.30;99.90
9881;DHT22;4979;51.014;6.678;2022-07-17T08:57:58;23.10;99.90
9881;DHT22;4979;51.014;6.678;2022-07-17T09:00:25;23.10;99.90
9881;DHT22;4979;51.014;6.678;2022-07-17T09:03:02;23.40;99.90
9881;DHT22;4979;51.014;6.678;2022-07-17T09:05:30;23.20;99.90
9881;DHT22;4979;51.014;6.678;2022-07-17T09:07:56;23.00;99.90
9881;DHT22;4979;51.014;6.678;2022-07-17T09:10:39;23.20;99.90
9881;DHT22;4979;51.014;6.678;2022-07-17T09:13:24;23.60;99.90
9881;DHT22;4979;51.014;6.678;2022-07-17T09:15:58;23.70;99.90
9881;DHT22;4979;51.014;6.678;2022-07-17T09:18:24;23.70;99.90
9881;DHT22;4979;51.014;6.678;2022-07-17T09:20:55;23.80;99.90
9881;DHT22;4979;51.014;6.678;2022-07-17T09:23:23;23.90;99.90
9881;DHT22;4979;51.014;6.678;2022-07-17T09:25:51;24.10;99.90
9881;DHT22;4979;51.014;6.678;2022-07-17T09:28:17;24.20;99.90
9881;DHT22;4979;51.014;6.678;2022-07-17T09:30:46;24.30;99.90
9881;DHT22;4979;51.014;6.678;2022-07-17T09:33:21;24.20;99.90
9881;DHT22;4979;51.014;6.678;2022-07-17T09:36:07;24.30;99.90
9881;DHT22;4979;51.014;6.678;2022-07-17T09:38:35;24.40;99.90
9881;DHT22;4979;51.014;6.678;2022-07-17T09:41:15;24.30;99.90
9881;DHT22;4979;51.014;6.678;2022-07-17T09:43:52;24.40;99.90
9881;DHT22;4979;51.014;6.678;2022-07-17T09:46:28;24.50;99.90
9881;DHT22;4979;51.014;6.678;2022-07-17T09:48:59;24.60;99.90
9881;DHT22;4979;51.014;6.678;2022-07-17T09:51:28;25.00;99.90
9881;DHT22;4979;51.014;6.678;2022-07-17T09:53:56;24.70;99.90
9881;DHT22;4979;51.014;6.678;2022-07-17T09:56:24;24.80;99.90
9881;DHT22;4979;51.014;6.678;2022-07-17T09:58:53;24.90;99.00
9881;DHT22;4979;51.014;6.678;2022-07-17T10:01:20;24.80;99.40
9881;DHT22;4979;51.014;6.678;2022-07-17T10:03:46;24.90;98.70
9881;DHT22;4979;51.014;6.678;2022-07-17T10:06:14;25.20;98.20
9881;DHT22;4979;51.014;6.678;2022-07-17T10:08:40;25.40;97.10
9881;DHT22;4979;51.014;6.678;2022-07-17T10:11:09;25.30;98.50
9881;DHT22;4979;51.014;6.678;2022-07-17T10:13:38;25.40;98.10
9881;DHT22;4979;51.014;6.678;2022-07-17T10:16:04;25.60;97.40
9881;DHT22;4979;51.014;6.678;2022-07-17T10:18:39;25.60;95.70
9881;DHT22;4979;51.014;6.678;2022-07-17T10:21:17;25.60;96.80
9881;DHT22;4979;51.014;6.678;2022-07-17T10:26:15;25.70;96.30
9881;DHT22;4979;51.014;6.678;2022-07-17T10:28:46;25.80;95.70
9881;DHT22;4979;51.014;6.678;2022-07-17T10:31:28;25.70;94.20
9881;DHT22;4979;51.014;6.678;2022-07-17T10:34:00;25.80;94.40
9881;DHT22;4979;51.014;6.678;2022-07-17T10:36:40;26.10;95.20
9881;DHT22;4979;51.014;6.678;2022-07-17T10:39:20;26.10;94.00
9881;DHT22;4979;51.014;6.678;2022-07-17T10:42:02;26.00;94.10
9881;DHT22;4979;51.014;6.678;2022-07-17T10:44:29;26.00;94.60
9881;DHT22;4979;51.014;6.678;2022-07-17T10:46:58;26.50;93.80
9881;DHT22;4979;51.014;6.678;2022-07-17T10:49:24;26.20;92.30
9881;DHT22;4979;51.014;6.678;2022-07-17T10:51:50;26.00;93.10
9881;DHT22;4979;51.014;6.678;2022-07-17T10:54:17;26.30;92.90
9881;DHT22;4979;51.014;6.678;2022-07-17T10:56:43;26.10;92.80
9881;DHT22;4979;51.014;6.678;2022-07-17T10:59:12;26.40;93.00
9881;DHT22;4979;51.014;6.678;2022-07-17T11:01:38;26.60;92.70
9881;DHT22;4979;51.014;6.678;2022-07-17T11:04:04;26.70;92.10
9881;DHT22;4979;51.014;6.678;2022-07-17T11:06:34;26.70;91.20
9881;DHT22;4979;51.014;6.678;2022-07-17T11:09:07;26.60;91.00
9881;DHT22;4979;51.014;6.678;2022-07-17T11:11:51;26.70;91.40
9881;DHT22;4979;51.014;6.678;2022-07-17T11:14:21;26.60;91.10
9881;DHT22;4979;51.014;6.678;2022-07-17T11:16:54;26.50;90.70
9881;DHT22;4979;51.014;6.678;2022-07-17T11:19:31;26.90;91.50
9881;DHT22;4979;51.014;6.678;2022-07-17T11:22:01;27.10;90.80
9881;DHT22;4979;51.014;6.678;2022-07-17T11:24:43;27.10;90.80
9881;DHT22;4979;51.014;6.678;2022-07-17T11:27:22;26.90;89.40
9881;DHT22;4979;51.014;6.678;2022-07-17T11:29:49;27.10;90.40
9881;DHT22;4979;51.014;6.678;2022-07-17T11:32:15;27.20;90.40
9881;DHT22;4979;51.014;6.678;2022-07-17T11:34:41;27.40;90.20
9881;DHT22;4979;51.014;6.678;2022-07-17T11:37:08;27.40;87.50
9881;DHT22;4979;51.014;6.678;2022-07-17T11:39:48;27.40;86.80
9881;DHT22;4979;51.014;6.678;2022-07-17T11:42:18;27.10;85.70
9881;DHT22;4979;51.014;6.678;2022-07-17T11:44:45;27.30;86.50
9881;DHT22;4979;51.014;6.678;2022-07-17T11:47:18;27.40;86.50
9881;DHT22;4979;51.014;6.678;2022-07-17T11:49:44;27.60;85.50
9881;DHT22;4979;51.014;6.678;2022-07-17T11:52:20;27.60;87.00
9881;DHT22;4979;51.014;6.678;2022-07-17T11:54:52;27.80;86.50
9881;DHT22;4979;51.014;6.678;2022-07-17T11:57:18;27.90;85.20
9881;DHT22;4979;51.014;6.678;2022-07-17T11:59:45;27.50;80.80
9881;DHT22;4979;51.014;6.678;2022-07-17T12:02:17;27.40;82.20
9881;DHT22;4979;51.014;6.678;2022-07-17T12:04:51;27.40;84.20
9881;DHT22;4979;51.014;6.678;2022-07-17T12:07:17;27.60;82.20
9881;DHT22;4979;51.014;6.678;2022-07-17T12:09:43;27.90;81.20
9881;DHT22;4979;51.014;6.678;2022-07-17T12:12:21;28.10;81.50
9881;DHT22;4979;51.014;6.678;2022-07-17T12:14:58;28.10;80.20
9881;DHT22;4979;51.014;6.678;2022-07-17T12:17:46;28.10;81.70
9881;DHT22;4979;51.014;6.678;2022-07-17T12:20:11;28.20;82.20
9881;DHT22;4979;51.014;6.678;2022-07-17T12:22:47;28.00;78.90
9881;DHT22;4979;51.014;6.678;2022-07-17T12:25:24;28.20;78.80
9881;DHT22;4979;51.014;6.678;2022-07-17T12:27:50;28.10;77.80
9881;DHT22;4979;51.014;6.678;2022-07-17T12:30:16;28.00;77.40
9881;DHT22;4979;51.014;6.678;2022-07-17T12:32:41;28.40;76.40
9881;DHT22;4979;51.014;6.678;2022-07-17T12:35:07;28.50;75.70
9881;DHT22;4979;51.014;6.678;2022-07-17T12:37:33;28.40;75.70
9881;DHT22;4979;51.014;6.678;2022-07-17T12:39:59;28.50;75.70
9881;DHT22;4979;51.014;6.678;2022-07-17T12:42:24;28.50;76.30
9881;DHT22;4979;51.014;6.678;2022-07-17T12:44:50;28.50;73.80
9881;DHT22;4979;51.014;6.678;2022-07-17T12:47:16;28.40;72.90
9881;DHT22;4979;51.014;6.678;2022-07-17T12:49:41;28.40;73.80
9881;DHT22;4979;51.014;6.678;2022-07-17T12:52:07;28.40;74.40
9881;DHT22;4979;51.014;6.678;2022-07-17T12:54:33;28.50;71.70
9881;DHT22;4979;51.014;6.678;2022-07-17T12:56:58;28.40;70.40
9881;DHT22;4979;51.014;6.678;2022-07-17T12:59:24;28.60;71.50
9881;DHT22;4979;51.014;6.678;2022-07-17T13:01:50;28.70;67.40
9881;DHT22;4979;51.014;6.678;2022-07-17T13:04:16;28.60;68.10
9881;DHT22;4979;51.014;6.678;2022-07-17T13:06:41;28.50;67.30
9881;DHT22;4979;51.014;6.678;2022-07-17T13:09:07;28.60;66.00
9881;DHT22;4979;51.014;6.678;2022-07-17T13:11:33;28.50;64.90
9881;DHT22;4979;51.014;6.678;2022-07-17T13:13:59;28.70;66.20
9881;DHT22;4979;51.014;6.678;2022-07-17T13:16:24;28.70;65.40
9881;DHT22;4979;51.014;6.678;2022-07-17T13:18:50;28.80;63.70
9881;DHT22;4979;51.014;6.678;2022-07-17T13:21:16;28.90;61.90
9881;DHT22;4979;51.014;6.678;2022-07-17T13:23:42;29.00;65.20
9881;DHT22;4979;51.014;6.678;2022-07-17T13:26:08;28.80;60.80
9881;DHT22;4979;51.014;6.678;2022-07-17T13:28:33;29.00;62.50
9881;DHT22;4979;51.014;6.678;2022-07-17T13:31:00;29.30;63.60
9881;DHT22;4979;51.014;6.678;2022-07-17T13:33:27;29.50;63.10
9881;DHT22;4979;51.014;6.678;2022-07-17T13:35:53;29.50;63.20
9881;DHT22;4979;51.014;6.678;2022-07-17T13:38:20;29.50;65.70
9881;DHT22;4979;51.014;6.678;2022-07-17T13:40:46;29.60;65.60
9881;DHT22;4979;51.014;6.678;2022-07-17T13:43:11;29.40;64.90
9881;DHT22;4979;51.014;6.678;2022-07-17T13:45:37;29.20;64.10
9881;DHT22;4979;51.014;6.678;2022-07-17T13:48:03;29.20;63.80
9881;DHT22;4979;51.014;6.678;2022-07-17T13:50:29;29.20;63.20
9881;DHT22;4979;51.014;6.678;2022-07-17T13:52:55;29.30;64.90
9881;DHT22;4979;51.014;6.678;2022-07-17T13:55:21;29.40;62.70
9881;DHT22;4979;51.014;6.678;2022-07-17T13:57:46;29.40;60.50
9881;DHT22;4979;51.014;6.678;2022-07-17T14:00:12;29.40;62.20
9881;DHT22;4979;51.014;6.678;2022-07-17T14:02:38;29.40;61.20
9881;DHT22;4979;51.014;6.678;2022-07-17T14:05:05;29.20;62.20
9881;DHT22;4979;51.014;6.678;2022-07-17T14:07:31;29.20;63.90
9881;DHT22;4979;51.014;6.678;2022-07-17T14:09:57;29.00;64.10
9881;DHT22;4979;51.014;6.678;2022-07-17T14:12:23;28.70;62.10
9881;DHT22;4979;51.014;6.678;2022-07-17T14:14:48;29.00;63.90
9881;DHT22;4979;51.014;6.678;2022-07-17T14:17:14;29.20;64.10
9881;DHT22;4979;51.014;6.678;2022-07-17T14:19:43;29.30;63.30
9881;DHT22;4979;51.014;6.678;2022-07-17T14:22:08;29.20;62.90
9881;DHT22;4979;51.014;6.678;2022-07-17T14:24:34;29.30;64.10
9881;DHT22;4979;51.014;6.678;2022-07-17T14:26:59;29.20;62.70
9881;DHT22;4979;51.014;6.678;2022-07-17T14:29:25;29.40;62.90
9881;DHT22;4979;51.014;6.678;2022-07-17T14:31:50;29.50;62.80
9881;DHT22;4979;51.014;6.678;2022-07-17T14:34:16;29.50;62.80
9881;DHT22;4979;51.014;6.678;2022-07-17T14:36:43;29.60;64.40
9881;DHT22;4979;51.014;6.678;2022-07-17T14:39:09;29.50;62.40
9881;DHT22;4979;51.014;6.678;2022-07-17T14:41:35;29.30;64.00
9881;DHT22;4979;51.014;6.678;2022-07-17T14:44:01;29.20;64.00
9881;DHT22;4979;51.014;6.678;2022-07-17T14:46:26;29.00;65.10
9881;DHT22;4979;51.014;6.678;2022-07-17T14:48:52;29.30;65.50
9881;DHT22;4979;51.014;6.678;2022-07-17T14:51:18;29.40;64.50
9881;DHT22;4979;51.014;6.678;2022-07-17T14:53:44;29.50;64.00
9881;DHT22;4979;51.014;6.678;2022-07-17T14:56:10;29.80;63.80
9881;DHT22;4979;51.014;6.678;2022-07-17T14:58:36;29.90;63.10
9881;DHT22;4979;51.014;6.678;2022-07-17T15:01:01;29.70;64.10
9881;DHT22;4979;51.014;6.678;2022-07-17T15:03:29;29.70;63.60
9881;DHT22;4979;51.014;6.678;2022-07-17T15:05:56;29.80;63.30
9881;DHT22;4979;51.014;6.678;2022-07-17T15:08:22;29.80;61.70
9881;DHT22;4979;51.014;6.678;2022-07-17T15:10:48;29.40;62.50
9881;DHT22;4979;51.014;6.678;2022-07-17T15:13:18;29.40;61.70
9881;DHT22;4979;51.014;6.678;2022-07-17T15:15:44;29.50;60.30
9881;DHT22;4979;51.014;6.678;2022-07-17T15:18:10;29.90;60.90
9881;DHT22;4979;51.014;6.678;2022-07-17T15:20:36;29.90;60.60
9881;DHT22;4979;51.014;6.678;2022-07-17T15:23:02;30.00;59.60
9881;DHT22;4979;51.014;6.678;2022-07-17T15:25:28;30.00;59.90
9881;DHT22;4979;51.014;6.678;2022-07-17T15:27:53;29.80;60.80
9881;DHT22;4979;51.014;6.678;2022-07-17T15:30:19;29.70;59.40
9881;DHT22;4979;51.014;6.678;2022-07-17T15:32:45;29.70;59.50
9881;DHT22;4979;51.014;6.678;2022-07-17T15:35:10;29.70;57.70
9881;DHT22;4979;51.014;6.678;2022-07-17T15:37:36;29.80;57.90
9881;DHT22;4979;51.014;6.678;2022-07-17T15:40:03;29.70;59.00
9881;DHT22;4979;51.014;6.678;2022-07-17T15:42:29;29.70;59.20
9881;DHT22;4979;51.014;6.678;2022-07-17T15:44:54;29.50;58.70
9881;DHT22;4979;51.014;6.678;2022-07-17T15:47:20;29.80;58.90
9881;DHT22;4979;51.014;6.678;2022-07-17T15:49:46;29.90;58.10
9881;DHT22;4979;51.014;6.678;2022-07-17T15:52:12;29.80;57.10
9881;DHT22;4979;51.014;6.678;2022-07-17T15:54:37;29.80;57.80
9881;DHT22;4979;51.014;6.678;2022-07-17T15:57:03;29.90;57.20
9881;DHT22;4979;51.014;6.678;2022-07-17T15:59:28;29.60;56.30
9881;DHT22;4979;51.014;6.678;2022-07-17T16:01:54;29.80;57.90
9881;DHT22;4979;51.014;6.678;2022-07-17T16:04:19;29.70;56.70